Time;durP1;ratioP1;P1;durP2;ratioP2;P2;SDS_P1;SDS_P2;PMS_P1;PMS_P2;Temp;Humidity;BMP_temperature;BMP_pressure;BME280_temperature;BME280_humidity;BME280_pressure;Samples;Min_cycle;Max_cycle;Signal;HPM_P1;HPM_P2
2023/03/20 00:00:15;;;;;;;8.60;2.80;;;7.50;99.90;;;;;;4214227;28;20046;-84
2023/03/20 00:02:22;;;;;;;4.75;2.40;;;7.50;99.90;;;;;;4199513;28;20123;-85
2023/03/20 00:04:24;;;;;;;6.20;2.42;;;7.50;99.90;;;;;;4198453;28;20382;-84
2023/03/20 00:06:30;;;;;;;8.43;2.90;;;7.50;99.90;;;;;;4197176;28;20048;-84
2023/03/20 00:08:31;;;;;;;8.80;2.58;;;7.50;99.90;;;;;;4198095;28;20132;-84
2023/03/20 00:10:38;;;;;;;5.35;2.35;;;7.50;99.90;;;;;;4198973;28;20089;-84
2023/03/20 00:12:39;;;;;;;8.10;2.55;;;7.50;99.90;;;;;;4198341;28;20576;-84
2023/03/20 00:14:40;;;;;;;8.23;2.88;;;7.60;99.90;;;;;;4198538;28;20507;-85
2023/03/20 00:16:43;;;;;;;8.05;2.70;;;7.50;99.90;;;;;;4196849;28;20048;-85
2023/03/20 00:18:44;;;;;;;6.63;3.13;;;7.50;99.90;;;;;;4197926;28;20079;-84
2023/03/20 00:20:46;;;;;;;7.85;2.97;;;7.50;99.90;;;;;;4179553;28;20048;-85
2023/03/20 00:22:47;;;;;;;8.77;2.83;;;7.50;99.90;;;;;;4196969;28;20102;-85
2023/03/20 00:24:48;;;;;;;8.35;3.38;;;7.50;99.90;;;;;;4198362;28;20044;-84
2023/03/20 00:26:50;;;;;;;8.27;3.65;;;7.50;99.90;;;;;;4192640;28;20123;-85
2023/03/20 00:28:51;;;;;;;8.30;3.30;;;7.50;99.90;;;;;;4187770;28;20052;-85
2023/03/20 00:30:52;;;;;;;5.60;3.25;;;7.50;99.90;;;;;;4181164;28;20043;-85
2023/03/20 00:32:54;;;;;;;5.85;2.90;;;7.40;99.90;;;;;;4181454;28;20049;-85
2023/03/20 00:34:56;;;;;;;5.95;2.90;;;7.40;99.90;;;;;;4169816;28;20056;-85
2023/03/20 00:36:57;;;;;;;8.77;2.92;;;7.40;99.90;;;;;;4163821;28;20051;-85
2023/03/20 00:38:58;;;;;;;6.60;2.75;;;7.40;99.90;;;;;;4181319;28;20155;-85
2023/03/20 00:40:59;;;;;;;6.32;2.70;;;7.30;99.90;;;;;;4181048;28;20412;-85
2023/03/20 00:43:03;;;;;;;4.88;2.53;;;7.30;99.90;;;;;;4180329;28;20477;-85
2023/03/20 00:45:05;;;;;;;6.88;2.97;;;7.40;99.90;;;;;;4182454;28;20473;-84
2023/03/20 00:47:17;;;;;;;6.43;2.75;;;7.30;99.90;;;;;;4180720;28;20136;-85
2023/03/20 00:49:22;;;;;;;7.53;2.85;;;7.30;99.90;;;;;;4179796;28;20162;-85
2023/03/20 00:51:22;;;;;;;6.22;2.85;;;7.30;99.90;;;;;;4179634;28;20048;-85
2023/03/20 00:53:23;;;;;;;6.57;2.80;;;7.30;99.90;;;;;;4181067;28;20509;-84
2023/03/20 00:55:28;;;;;;;6.78;2.97;;;7.30;99.90;;;;;;4180595;28;20048;-84
2023/03/20 00:57:36;;;;;;;7.15;2.30;;;7.30;99.90;;;;;;4179523;28;20124;-84
2023/03/20 01:00:06;;;;;;;5.75;2.75;;;7.30;99.90;;;;;;4180413;28;20061;-84
2023/03/20 01:02:10;;;;;;;5.53;3.10;;;7.30;99.90;;;;;;4191985;28;20036;-84
2023/03/20 01:04:13;;;;;;;6.90;3.05;;;7.30;99.90;;;;;;4197618;28;20469;-84
2023/03/20 01:06:14;;;;;;;6.65;2.75;;;7.30;99.90;;;;;;4197287;28;20048;-84
2023/03/20 01:08:23;;;;;;;5.15;2.70;;;7.30;99.90;;;;;;4197977;28;20393;-84
2023/03/20 01:10:29;;;;;;;6.90;2.67;;;7.30;99.90;;;;;;4196664;28;20049;-84
2023/03/20 01:12:29;;;;;;;5.25;2.40;;;7.30;99.90;;;;;;4198102;28;20083;-83
2023/03/20 01:14:30;;;;;;;10.68;2.83;;;7.30;99.90;;;;;;4206185;28;20036;-84
2023/03/20 01:16:31;;;;;;;6.88;2.55;;;7.30;99.90;;;;;;4217542;28;20024;-84
2023/03/20 01:18:32;;;;;;;6.78;3.03;;;7.30;99.90;;;;;;4212878;28;20115;-84
2023/03/20 01:20:33;;;;;;;7.80;2.30;;;7.30;99.90;;;;;;4218049;28;20040;-84
2023/03/20 01:22:34;;;;;;;4.93;2.40;;;7.30;99.90;;;;;;4218326;28;20080;-84
2023/03/20 01:24:35;;;;;;;5.93;2.80;;;7.30;99.90;;;;;;4218202;28;20045;-84
2023/03/20 01:26:41;;;;;;;11.30;3.67;;;7.30;99.90;;;;;;4216705;28;20017;-85
2023/03/20 01:28:42;;;;;;;5.90;3.03;;;7.20;99.90;;;;;;4201204;28;20028;-84
2023/03/20 01:30:44;;;;;;;12.60;3.55;;;7.30;99.90;;;;;;4200806;28;20029;-84
2023/03/20 01:32:46;;;;;;;6.63;3.10;;;7.20;99.90;;;;;;4217456;28;20042;-84
2023/03/20 01:34:47;;;;;;;5.97;2.90;;;7.30;99.90;;;;;;4217249;28;20032;-84
2023/03/20 01:36:53;;;;;;;8.32;2.72;;;7.20;99.90;;;;;;4215455;28;20100;-84
2023/03/20 01:38:57;;;;;;;11.82;2.47;;;7.30;99.90;;;;;;4198891;28;20041;-84
2023/03/20 01:41:05;;;;;;;5.93;2.67;;;7.20;99.90;;;;;;4203686;28;20092;-84
2023/03/20 01:43:14;;;;;;;7.35;3.10;;;7.20;99.90;;;;;;4220430;28;20040;-84
2023/03/20 01:45:19;;;;;;;7.50;3.30;;;7.30;99.90;;;;;;4204246;28;20165;-85
2023/03/20 01:47:23;;;;;;;6.07;2.78;;;7.20;99.90;;;;;;4195059;28;20069;-85
2023/03/20 01:49:27;;;;;;;7.80;3.20;;;7.30;99.90;;;;;;4184891;28;20178;-84
2023/03/20 01:51:31;;;;;;;9.43;3.03;;;7.30;99.90;;;;;;4183296;28;20049;-85
2023/03/20 01:53:33;;;;;;;7.85;3.10;;;7.30;99.90;;;;;;4178745;28;20048;-85
2023/03/20 01:55:35;;;;;;;6.57;3.03;;;7.30;99.90;;;;;;4184622;28;20503;-85
2023/03/20 01:57:36;;;;;;;10.52;3.53;;;7.30;99.90;;;;;;4167393;28;20426;-84
2023/03/20 01:59:48;;;;;;;6.43;2.78;;;7.30;99.90;;;;;;4183677;28;20056;-84
2023/03/20 02:01:50;;;;;;;8.68;3.85;;;7.30;99.90;;;;;;4183263;28;20095;-84
2023/03/20 02:03:50;;;;;;;9.02;3.10;;;6.70;99.90;;;;;;4166225;28;20049;-84
2023/03/20 02:05:52;;;;;;;9.88;3.70;;;7.30;99.90;;;;;;4199392;28;20110;-84
2023/03/20 02:08:12;;;;;;;10.07;3.38;;;7.30;99.90;;;;;;4184228;28;20053;-85
2023/03/20 02:10:15;;;;;;;10.75;3.85;;;7.30;99.90;;;;;;4191225;28;20040;-84
2023/03/20 02:12:18;;;;;;;10.93;3.22;;;7.30;99.90;;;;;;4222721;28;20040;-83
2023/03/20 02:14:21;;;;;;;8.50;3.95;;;7.30;99.90;;;;;;4217921;28;20050;-84
2023/03/20 02:16:21;;;;;;;7.45;3.30;;;7.30;99.90;;;;;;4227698;28;20549;-84
2023/03/20 02:18:23;;;;;;;9.60;3.70;;;7.30;99.90;;;;;;4233860;28;20043;-84
2023/03/20 02:20:36;;;;;;;9.45;3.60;;;7.30;99.90;;;;;;4215652;28;20190;-84
2023/03/20 02:23:10;;;;;;;9.73;4.25;;;7.30;99.90;;;;;;4198785;28;20059;-84
2023/03/20 02:25:14;;;;;;;11.40;4.47;;;7.30;99.90;;;;;;4233777;28;20415;-84
2023/03/20 02:27:44;;;;;;;10.80;4.30;;;7.30;99.90;;;;;;4198146;28;20044;-84
2023/03/20 02:30:06;;;;;;;15.90;4.22;;;7.30;99.90;;;;;;4153714;28;20091;-84
2023/03/20 02:32:31;;;;;;;10.35;3.58;;;6.80;99.90;;;;;;4182600;28;20123;-85
2023/03/20 02:35:03;;;;;;;11.80;3.90;;;7.30;99.90;;;;;;4183469;28;20056;-85
2023/03/20 02:37:37;;;;;;;13.60;4.00;;;7.30;99.90;;;;;;4216778;28;20036;-84
2023/03/20 02:39:59;;;;;;;10.20;4.53;;;7.40;99.90;;;;;;4225767;28;20088;-84
2023/03/20 02:42:46;;;;;;;12.60;3.90;;;7.30;99.90;;;;;;4237058;28;20032;-84
2023/03/20 02:45:21;;;;;;;11.80;4.55;;;7.30;99.90;;;;;;4201925;28;20093;-85
2023/03/20 02:47:30;;;;;;;13.93;4.20;;;7.40;99.90;;;;;;4219652;28;20039;-85
2023/03/20 02:49:49;;;;;;;7.85;4.00;;;7.60;99.90;;;;;;4202762;28;20025;-85
2023/03/20 02:51:59;;;;;;;;;;;7.30;99.90;;;;;;4236984;28;20072;-85
2023/03/20 02:54:37;;;;;;;11.20;4.32;;;7.40;99.90;;;;;;4236817;28;19904;-85
2023/03/20 02:57:13;;;;;;;15.20;4.18;;;7.40;99.90;;;;;;4236953;28;20048;-84
2023/03/20 02:59:45;;;;;;;14.57;4.22;;;7.40;99.90;;;;;;4182142;28;20067;-84
2023/03/20 03:02:15;;;;;;;17.20;4.80;;;7.40;99.90;;;;;;4240497;28;20047;-84
2023/03/20 03:04:19;;;;;;;13.13;3.97;;;7.40;99.90;;;;;;4199514;28;20087;-85
2023/03/20 03:06:29;;;;;;;9.18;3.78;;;7.40;99.90;;;;;;4226047;28;20059;-85
2023/03/20 03:08:35;;;;;;;9.60;4.18;;;7.40;99.90;;;;;;4205489;28;20040;-85
2023/03/20 03:10:42;;;;;;;10.80;4.55;;;7.60;99.90;;;;;;4181991;28;20061;-84
2023/03/20 03:12:47;;;;;;;10.63;4.70;;;7.40;99.90;;;;;;4183771;28;20045;-85
2023/03/20 03:14:55;;;;;;;11.95;4.13;;;7.40;99.90;;;;;;4166300;28;20057;-85
2023/03/20 03:16:58;;;;;;;17.58;5.18;;;7.40;99.90;;;;;;4164655;28;20080;-85
2023/03/20 03:19:14;;;;;;;14.27;4.55;;;7.40;99.90;;;;;;4165369;28;20061;-84
2023/03/20 03:21:17;;;;;;;15.75;4.57;;;7.40;99.90;;;;;;4188200;28;20059;-85
2023/03/20 03:23:30;;;;;;;13.27;4.53;;;7.50;99.90;;;;;;4182715;28;20049;-85
2023/03/20 03:25:39;;;;;;;12.98;5.03;;;7.40;99.90;;;;;;4182814;28;20051;-85
2023/03/20 03:27:42;;;;;;;;;;;7.40;99.90;;;;;;4183303;28;20470;-85
2023/03/20 03:29:50;;;;;;;11.00;4.60;;;7.40;99.90;;;;;;4180881;28;19927;-85
2023/03/20 03:31:52;;;;;;;18.33;4.95;;;7.40;99.90;;;;;;4182328;28;20499;-85
2023/03/20 03:33:55;;;;;;;11.93;4.55;;;7.40;99.90;;;;;;4180967;28;20051;-85
2023/03/20 03:36:09;;;;;;;14.68;5.55;;;7.50;99.90;;;;;;4182045;28;20052;-85
2023/03/20 03:38:32;;;;;;;12.15;4.43;;;7.40;99.90;;;;;;4181850;28;20044;-85
2023/03/20 03:40:37;;;;;;;15.73;5.28;;;7.40;99.90;;;;;;4197060;28;20481;-85
2023/03/20 03:42:44;;;;;;;12.70;5.50;;;7.40;99.90;;;;;;4198331;28;20048;-85
2023/03/20 03:45:19;;;;;;;15.77;4.25;;;7.40;99.90;;;;;;4197312;28;20134;-84
2023/03/20 03:47:25;;;;;;;16.67;4.65;;;7.40;99.90;;;;;;4154242;28;20469;-85
2023/03/20 03:49:30;;;;;;;12.27;4.40;;;7.50;99.90;;;;;;4198381;28;20051;-85
2023/03/20 03:51:34;;;;;;;10.85;4.30;;;7.50;99.90;;;;;;4197108;28;20131;-85
2023/03/20 03:53:47;;;;;;;17.23;5.45;;;7.50;99.90;;;;;;4197425;28;20086;-85
2023/03/20 03:55:52;;;;;;;13.88;4.68;;;7.50;99.90;;;;;;4196790;28;20108;-84
2023/03/20 03:58:19;;;;;;;12.25;4.32;;;7.50;99.90;;;;;;4187842;28;20401;-85
2023/03/20 04:00:23;;;;;;;14.57;5.45;;;7.50;99.90;;;;;;4182568;28;20040;-85
2023/03/20 04:02:25;;;;;;;12.52;5.22;;;7.50;99.90;;;;;;4181909;28;20497;-85
2023/03/20 04:04:29;;;;;;;10.98;4.38;;;7.50;99.90;;;;;;4181396;28;20048;-85
2023/03/20 04:06:30;;;;;;;12.65;4.70;;;7.50;99.90;;;;;;4180558;28;20128;-85
2023/03/20 04:08:33;;;;;;;11.93;4.57;;;7.60;99.90;;;;;;4181044;28;20045;-85
2023/03/20 04:10:34;;;;;;;12.00;4.35;;;7.60;99.90;;;;;;4186782;28;20064;-85
2023/03/20 04:12:40;;;;;;;17.05;5.25;;;7.50;99.90;;;;;;4214061;28;20143;-84
2023/03/20 04:14:42;;;;;;;12.65;4.70;;;7.50;99.90;;;;;;4218385;28;20039;-84
2023/03/20 04:16:43;;;;;;;15.13;5.57;;;7.60;99.90;;;;;;4214838;28;20086;-84
2023/03/20 04:18:44;;;;;;;12.45;5.30;;;7.60;99.90;;;;;;4215163;28;20044;-84
2023/03/20 04:20:46;;;;;;;9.70;4.20;;;7.60;99.90;;;;;;4214555;28;20048;-85
2023/03/20 04:22:47;;;;;;;11.20;4.65;;;7.60;99.90;;;;;;4196999;28;20048;-85
2023/03/20 04:24:48;;;;;;;14.05;5.07;;;7.60;99.90;;;;;;4214824;28;20557;-84
2023/03/20 04:26:49;;;;;;;10.25;4.50;;;7.60;99.90;;;;;;4214915;28;20044;-85
2023/03/20 04:28:50;;;;;;;12.45;4.43;;;7.60;99.90;;;;;;4215006;28;20078;-85
2023/03/20 04:30:55;;;;;;;11.82;4.88;;;7.60;99.90;;;;;;4196996;28;20504;-85
2023/03/20 04:32:57;;;;;;;8.38;4.10;;;7.60;99.90;;;;;;4214857;28;20044;-85
2023/03/20 04:34:58;;;;;;;13.25;4.68;;;7.60;99.90;;;;;;4196338;28;20040;-85
2023/03/20 04:37:00;;;;;;;13.05;4.32;;;7.30;99.90;;;;;;4196636;28;20119;-85
2023/03/20 04:39:00;;;;;;;13.18;4.55;;;7.60;99.90;;;;;;4196343;28;20123;-85
2023/03/20 04:41:02;;;;;;;8.60;3.90;;;7.60;99.90;;;;;;4179662;28;20057;-84
2023/03/20 04:43:03;;;;;;;12.93;3.67;;;7.60;99.90;;;;;;4196703;28;20052;-84
2023/03/20 04:45:05;;;;;;;10.77;4.13;;;7.70;99.90;;;;;;4196471;28;20478;-84
2023/03/20 04:47:07;;;;;;;11.77;4.88;;;7.70;99.90;;;;;;4182678;28;20052;-84
2023/03/20 04:49:08;;;;;;;9.30;3.90;;;7.60;99.90;;;;;;4221634;28;20484;-84
2023/03/20 04:51:08;;;;;;;10.38;4.60;;;7.70;99.90;;;;;;4231250;28;20043;-85
2023/03/20 04:53:09;;;;;;;8.93;4.30;;;7.70;99.90;;;;;;4231719;28;20502;-85
2023/03/20 04:55:10;;;;;;;15.90;4.85;;;7.70;99.90;;;;;;4213771;28;20852;-85
2023/03/20 04:57:11;;;;;;;16.80;5.05;;;7.60;99.90;;;;;;4213101;28;20036;-85
2023/03/20 04:59:12;;;;;;;11.45;4.75;;;7.60;99.90;;;;;;4214858;28;20056;-85
2023/03/20 05:01:12;;;;;;;12.27;4.68;;;7.60;99.90;;;;;;4225171;28;20079;-84
2023/03/20 05:03:13;;;;;;;12.40;4.95;;;7.70;99.90;;;;;;4244486;28;20054;-85
2023/03/20 05:05:15;;;;;;;10.32;5.30;;;7.70;99.90;;;;;;4197759;28;20088;-85
2023/03/20 05:07:15;;;;;;;13.88;5.28;;;7.70;99.90;;;;;;4219075;28;20446;-85
2023/03/20 05:09:16;;;;;;;10.43;4.35;;;7.30;99.90;;;;;;4214313;28;20043;-85
2023/03/20 05:11:17;;;;;;;9.68;4.68;;;7.70;99.90;;;;;;4208751;28;20415;-85
2023/03/20 05:13:18;;;;;;;13.13;5.30;;;6.90;99.90;;;;;;4231067;28;20406;-84
2023/03/20 05:15:19;;;;;;;15.32;6.32;;;7.70;99.90;;;;;;4234937;28;20054;-85
2023/03/20 05:17:22;;;;;;;11.35;4.85;;;7.70;99.90;;;;;;4199995;28;20575;-85
2023/03/20 05:19:23;;;;;;;9.70;4.90;;;7.70;99.90;;;;;;4234280;28;20043;-84
2023/03/20 05:21:23;;;;;;;14.55;5.32;;;7.70;99.90;;;;;;4234398;28;20130;-85
2023/03/20 05:23:24;;;;;;;16.70;5.60;;;7.70;99.90;;;;;;4211528;28;20036;-85
2023/03/20 05:25:25;;;;;;;15.10;5.88;;;7.70;99.90;;;;;;4234340;28;20062;-84
2023/03/20 05:27:26;;;;;;;13.25;4.80;;;7.70;99.90;;;;;;4234249;28;20040;-85
2023/03/20 05:29:26;;;;;;;13.55;5.53;;;7.70;99.90;;;;;;4234024;28;20047;-84
2023/03/20 05:31:27;;;;;;;12.65;4.78;;;7.70;99.90;;;;;;4215924;28;20052;-84
2023/03/20 05:33:28;;;;;;;12.73;6.03;;;7.70;99.90;;;;;;4199817;28;20052;-84
2023/03/20 05:35:30;;;;;;;15.90;5.40;;;7.40;99.90;;;;;;4215976;28;20135;-84
2023/03/20 05:37:30;;;;;;;14.20;5.82;;;7.70;99.90;;;;;;4216009;28;20118;-85
2023/03/20 05:39:31;;;;;;;13.70;5.28;;;7.70;99.90;;;;;;4202809;28;20447;-84
2023/03/20 05:41:32;;;;;;;13.70;5.15;;;7.70;99.90;;;;;;4217309;28;20044;-85
2023/03/20 05:43:33;;;;;;;14.75;6.03;;;7.70;99.90;;;;;;4217597;28;20040;-85
2023/03/20 05:45:34;;;;;;;14.25;5.88;;;7.70;99.90;;;;;;4233662;28;20075;-84
2023/03/20 05:47:35;;;;;;;14.65;5.60;;;7.70;99.90;;;;;;4234408;28;20507;-83
2023/03/20 05:49:36;;;;;;;13.13;5.80;;;7.70;99.90;;;;;;4217152;28;20044;-84
2023/03/20 05:51:37;;;;;;;12.80;5.40;;;7.70;99.90;;;;;;4215847;28;20047;-83
2023/03/20 05:53:37;;;;;;;17.95;6.43;;;7.70;99.90;;;;;;4199848;28;20051;-83
2023/03/20 05:55:40;;;;;;;12.48;4.90;;;7.70;99.90;;;;;;4216394;28;20135;-83
2023/03/20 05:57:41;;;;;;;16.17;5.30;;;7.70;99.90;;;;;;4215744;28;20044;-84
2023/03/20 05:59:42;;;;;;;15.13;4.97;;;7.70;99.90;;;;;;4198429;28;20127;-84
2023/03/20 06:01:43;;;;;;;12.48;4.93;;;7.70;99.90;;;;;;4216186;28;20051;-84
2023/03/20 06:03:44;;;;;;;8.32;4.55;;;7.70;99.90;;;;;;4215925;28;20488;-84
2023/03/20 06:05:45;;;;;;;15.93;5.38;;;7.70;99.90;;;;;;4233171;28;20055;-84
2023/03/20 06:07:46;;;;;;;12.80;5.10;;;7.70;99.90;;;;;;4215614;28;20044;-84
2023/03/20 06:09:48;;;;;;;10.73;4.13;;;7.70;99.90;;;;;;4233609;28;20046;-84
2023/03/20 06:11:48;;;;;;;13.57;5.30;;;7.70;99.90;;;;;;4233083;28;20055;-84
2023/03/20 06:13:53;;;;;;;14.82;5.95;;;7.70;99.90;;;;;;4212954;28;20044;-84
2023/03/20 06:15:54;;;;;;;13.70;4.78;;;7.70;99.90;;;;;;4214203;28;20036;-84
2023/03/20 06:17:55;;;;;;;11.60;4.97;;;7.70;99.90;;;;;;4215246;28;20048;-84
2023/03/20 06:19:56;;;;;;;11.48;4.55;;;7.70;99.90;;;;;;4210313;28;20051;-83
2023/03/20 06:21:57;;;;;;;11.45;4.38;;;7.70;99.90;;;;;;4216424;28;20068;-84
2023/03/20 06:23:58;;;;;;;10.32;4.47;;;7.70;99.90;;;;;;4215988;28;20101;-84
2023/03/20 06:25:59;;;;;;;15.43;5.38;;;7.70;99.90;;;;;;4180482;28;20049;-84
2023/03/20 06:28:00;;;;;;;10.13;4.82;;;7.70;99.90;;;;;;4218172;28;20047;-84
2023/03/20 06:30:01;;;;;;;15.68;5.28;;;7.70;99.90;;;;;;4198700;28;20048;-84
2023/03/20 06:32:02;;;;;;;12.27;5.13;;;7.70;99.90;;;;;;4202444;28;20075;-84
2023/03/20 06:34:03;;;;;;;12.65;4.38;;;7.70;99.90;;;;;;4228894;28;20028;-84
2023/03/20 06:36:04;;;;;;;16.48;6.05;;;7.60;99.90;;;;;;4226415;28;20106;-84
2023/03/20 06:38:05;;;;;;;16.13;5.93;;;7.70;99.90;;;;;;4198211;28;20047;-84
2023/03/20 06:40:07;;;;;;;13.15;5.93;;;7.70;99.90;;;;;;4198482;28;20127;-84
2023/03/20 06:42:07;;;;;;;14.07;5.63;;;7.80;99.90;;;;;;4198559;28;20060;-84
2023/03/20 06:44:09;;;;;;;11.27;5.47;;;7.70;99.90;;;;;;4198362;28;20083;-84
2023/03/20 06:46:09;;;;;;;11.10;4.88;;;7.70;99.90;;;;;;4206661;28;20438;-84
2023/03/20 06:48:10;;;;;;;15.45;5.53;;;7.80;99.90;;;;;;4198024;28;20043;-84
2023/03/20 06:50:13;;;;;;;14.73;5.50;;;7.80;99.90;;;;;;4232831;28;20036;-84
2023/03/20 06:52:17;;;;;;;16.52;5.03;;;7.80;99.90;;;;;;4236049;28;20050;-85
2023/03/20 06:54:19;;;;;;;11.98;5.40;;;7.80;99.90;;;;;;4214809;28;20077;-84
2023/03/20 06:56:19;;;;;;;15.88;5.60;;;7.80;99.90;;;;;;4232736;28;20067;-84
2023/03/20 06:58:20;;;;;;;14.52;5.35;;;7.80;99.90;;;;;;4214714;28;20048;-84
2023/03/20 07:00:21;;;;;;;17.02;5.25;;;7.80;99.90;;;;;;4197556;28;20055;-84
2023/03/20 07:02:23;;;;;;;13.45;5.80;;;7.90;99.90;;;;;;4226547;28;20032;-85
2023/03/20 07:04:25;;;;;;;17.30;5.95;;;7.80;99.90;;;;;;4198229;28;20041;-84
2023/03/20 07:06:26;;;;;;;14.70;5.43;;;7.90;99.90;;;;;;4215815;28;20052;-84
2023/03/20 07:08:27;;;;;;;12.57;5.50;;;7.90;99.90;;;;;;4197029;28;20590;-84
2023/03/20 07:10:28;;;;;;;12.02;4.68;;;7.90;99.90;;;;;;4213661;28;20044;-83
2023/03/20 07:12:29;;;;;;;17.73;5.15;;;8.00;99.90;;;;;;4198477;28;20044;-85
2023/03/20 07:14:29;;;;;;;18.10;6.93;;;8.00;99.90;;;;;;4198164;28;20044;-82
2023/03/20 07:16:30;;;;;;;17.15;5.90;;;8.00;99.90;;;;;;4164269;28;20048;-85
2023/03/20 07:18:31;;;;;;;14.23;5.55;;;8.00;99.90;;;;;;4182306;28;20053;-85
2023/03/20 07:20:33;;;;;;;14.60;6.50;;;8.00;99.90;;;;;;4183328;28;20406;-82
2023/03/20 07:22:34;;;;;;;20.50;5.65;;;8.00;99.90;;;;;;4192255;28;20484;-83
2023/03/20 07:24:35;;;;;;;17.55;4.30;;;8.10;99.90;;;;;;4181036;28;20048;-83
2023/03/20 07:26:36;;;;;;;15.52;5.47;;;8.10;99.90;;;;;;4182194;28;20527;-83
2023/03/20 07:28:36;;;;;;;12.77;5.35;;;8.20;99.90;;;;;;4180382;28;20114;-83
2023/03/20 07:30:37;;;;;;;15.43;5.60;;;8.20;99.90;;;;;;4180622;28;20123;-83
2023/03/20 07:32:39;;;;;;;14.88;5.53;;;8.20;99.90;;;;;;4180007;28;20053;-83
2023/03/20 07:34:40;;;;;;;18.70;6.50;;;8.20;99.90;;;;;;4196918;28;20080;-83
2023/03/20 07:36:41;;;;;;;14.68;6.25;;;8.30;99.90;;;;;;4196602;28;20053;-83
2023/03/20 07:38:42;;;;;;;12.07;5.75;;;8.30;99.90;;;;;;4197230;28;20508;-84
2023/03/20 07:40:42;;;;;;;13.18;6.38;;;8.40;99.90;;;;;;4184809;28;20037;-83
2023/03/20 07:42:44;;;;;;;13.00;6.10;;;8.40;99.90;;;;;;4180225;28;20045;-84
2023/03/20 07:44:45;;;;;;;14.90;6.10;;;8.50;99.90;;;;;;4164188;28;20053;-83
2023/03/20 07:46:47;;;;;;;17.33;6.38;;;8.50;99.90;;;;;;4181530;28;20076;-84
2023/03/20 07:48:49;;;;;;;14.93;6.32;;;8.50;99.90;;;;;;4180219;28;20049;-84
2023/03/20 07:50:50;;;;;;;15.02;6.30;;;8.60;99.90;;;;;;4181280;28;20043;-84
2023/03/20 07:52:51;;;;;;;13.75;6.97;;;8.60;99.90;;;;;;4163739;28;20534;-83
2023/03/20 07:54:51;;;;;;;15.68;6.18;;;8.60;99.90;;;;;;4182328;28;20870;-84
2023/03/20 07:56:52;;;;;;;17.08;5.90;;;8.80;99.90;;;;;;4196288;28;20055;-85
2023/03/20 07:58:53;;;;;;;10.55;5.28;;;8.50;99.90;;;;;;4198356;28;20044;-87
2023/03/20 08:00:57;;;;;;;14.75;5.65;;;8.60;99.90;;;;;;4192348;28;20041;-86
2023/03/20 08:02:57;;;;;;;14.73;6.60;;;8.60;99.90;;;;;;4181766;28;20512;-86
2023/03/20 08:04:58;;;;;;;12.43;5.53;;;8.60;99.90;;;;;;4194088;28;20041;-86
2023/03/20 08:06:59;;;;;;;14.98;5.95;;;8.70;99.90;;;;;;4185230;28;20084;-86
2023/03/20 08:09:00;;;;;;;19.73;6.57;;;8.70;99.90;;;;;;4181799;28;20048;-86
2023/03/20 08:11:01;;;;;;;16.33;5.97;;;8.80;99.90;;;;;;4181981;28;20053;-87
2023/03/20 08:13:02;;;;;;;17.40;6.47;;;8.90;99.90;;;;;;4182896;28;20056;-86
2023/03/20 08:15:03;;;;;;;13.82;6.43;;;8.90;99.90;;;;;;4182708;28;20500;-86
2023/03/20 08:17:04;;;;;;;16.67;6.80;;;8.90;99.90;;;;;;4183004;28;20056;-86
2023/03/20 08:19:05;;;;;;;16.92;5.95;;;8.90;99.90;;;;;;4181941;28;20052;-86
2023/03/20 08:21:06;;;;;;;15.70;5.72;;;8.90;99.90;;;;;;4181126;28;20142;-87
2023/03/20 08:23:07;;;;;;;15.73;6.30;;;8.80;99.90;;;;;;4181099;28;20135;-86
2023/03/20 08:25:08;;;;;;;12.52;5.88;;;8.80;99.90;;;;;;4182016;28;20052;-86
2023/03/20 08:27:09;;;;;;;14.95;5.82;;;8.80;99.90;;;;;;4191853;28;20362;-86
2023/03/20 08:29:10;;;;;;;14.57;5.60;;;8.70;99.90;;;;;;4183625;28;20102;-86
2023/03/20 08:31:12;;;;;;;16.98;6.53;;;8.70;99.90;;;;;;4189133;28;20049;-85
2023/03/20 08:33:15;;;;;;;12.27;6.30;;;8.70;99.90;;;;;;4198812;28;20071;-86
2023/03/20 08:35:16;;;;;;;16.38;6.20;;;8.70;99.90;;;;;;4199265;28;20048;-86
2023/03/20 08:37:17;;;;;;;13.85;6.25;;;8.70;99.90;;;;;;4197444;28;20048;-85
2023/03/20 08:39:18;;;;;;;17.33;7.00;;;8.70;99.90;;;;;;4198647;28;20093;-85
2023/03/20 08:41:18;;;;;;;13.85;6.05;;;8.70;99.90;;;;;;4207217;28;20036;-85
2023/03/20 08:43:19;;;;;;;18.75;6.82;;;8.80;99.90;;;;;;4193487;28;20390;-86
2023/03/20 08:45:23;;;;;;;14.75;6.38;;;8.70;99.90;;;;;;4194546;28;20087;-86
2023/03/20 08:47:25;;;;;;;15.77;6.32;;;8.80;99.90;;;;;;4189751;28;20041;-84
2023/03/20 08:49:26;;;;;;;22.45;6.85;;;8.80;99.90;;;;;;4175366;28;20100;-84
2023/03/20 08:51:27;;;;;;;15.10;5.80;;;8.70;99.90;;;;;;4192355;28;20052;-83
2023/03/20 08:53:28;;;;;;;12.65;5.97;;;8.80;99.90;;;;;;4181615;28;20476;-85
2023/03/20 08:55:29;;;;;;;14.35;5.97;;;8.80;99.90;;;;;;4181896;28;20516;-84
2023/03/20 08:57:31;;;;;;;12.43;5.70;;;9.00;99.90;;;;;;4182731;28;20056;-84
2023/03/20 08:59:32;;;;;;;14.90;6.20;;;9.00;99.90;;;;;;4182360;28;20048;-84
2023/03/20 09:01:33;;;;;;;13.60;6.30;;;8.60;99.90;;;;;;4181847;28;20116;-84
2023/03/20 09:03:35;;;;;;;20.02;5.93;;;9.10;99.90;;;;;;4165322;28;20137;-85
2023/03/20 09:05:36;;;;;;;14.60;6.82;;;9.20;99.90;;;;;;4183815;28;20037;-85
2023/03/20 09:07:37;;;;;;;16.67;5.85;;;9.20;99.90;;;;;;4185582;28;20150;-86
2023/03/20 09:09:38;;;;;;;14.88;6.30;;;9.30;99.90;;;;;;4181890;28;20482;-88
2023/03/20 09:11:39;;;;;;;13.57;6.32;;;9.30;99.90;;;;;;4163229;28;20127;-86
2023/03/20 09:13:40;;;;;;;13.70;5.50;;;9.40;99.90;;;;;;4180022;28;20037;-86
2023/03/20 09:15:40;;;;;;;16.10;5.53;;;9.40;99.90;;;;;;4180643;28;20045;-85
2023/03/20 09:17:41;;;;;;;15.48;6.40;;;9.50;99.90;;;;;;4176742;28;20048;-83
2023/03/20 09:19:43;;;;;;;12.23;5.55;;;9.60;99.90;;;;;;4197016;28;20037;-83
2023/03/20 09:21:45;;;;;;;12.95;5.45;;;9.70;99.90;;;;;;4179403;28;20085;-83
2023/03/20 09:23:46;;;;;;;13.70;5.57;;;9.70;99.90;;;;;;4178953;28;20049;-83
2023/03/20 09:25:47;;;;;;;14.32;5.53;;;9.70;99.90;;;;;;4194682;28;20048;-83
2023/03/20 09:27:54;;;;;;;11.35;5.28;;;9.70;99.90;;;;;;4178548;28;20046;-81
2023/03/20 09:29:55;;;;;;;17.02;6.30;;;9.80;99.90;;;;;;4172391;28;20120;-86
2023/03/20 09:31:56;;;;;;;15.18;5.78;;;9.90;99.90;;;;;;4192007;28;20076;-85
2023/03/20 09:33:57;;;;;;;17.98;5.47;;;10.10;99.90;;;;;;4191191;28;20036;-85
2023/03/20 09:35:59;;;;;;;12.73;5.53;;;10.10;99.90;;;;;;4198085;28;20040;-85
2023/03/20 09:38:00;;;;;;;15.20;5.85;;;10.10;99.90;;;;;;4165492;28;20096;-84
2023/03/20 09:40:01;;;;;;;13.07;5.00;;;10.00;99.90;;;;;;4187841;28;20052;-85
2023/03/20 09:42:17;;;;;;;14.57;6.10;;;10.00;99.90;;;;;;4181649;28;20992;-85
2023/03/20 09:44:45;;;;;;;12.23;5.18;;;10.00;99.90;;;;;;4196909;28;20124;-85
2023/03/20 09:47:13;;;;;;;13.23;5.20;;;10.10;99.90;;;;;;4182456;28;20481;-84
2023/03/20 09:49:42;;;;;;;19.97;7.13;;;10.10;99.90;;;;;;4210781;28;20051;-84
2023/03/20 09:51:50;;;;;;;;;;;10.20;99.90;;;;;;4180567;28;20804;-85
2023/03/20 09:53:58;;;;;;;16.70;5.65;;;10.30;99.90;;;;;;4182098;28;19928;-84
2023/03/20 09:55:59;;;;;;;19.45;5.43;;;10.40;99.90;;;;;;4164279;28;20509;-84
2023/03/20 09:58:25;;;;;;;13.65;5.95;;;10.40;99.90;;;;;;4180635;28;20044;-85
2023/03/20 10:00:29;;;;;;;15.85;4.95;;;10.40;99.90;;;;;;4183280;28;20045;-85
2023/03/20 10:02:36;;;;;;;14.18;4.88;;;10.00;99.90;;;;;;4184120;28;20052;-84
2023/03/20 10:04:37;;;;;;;15.07;5.55;;;10.40;99.90;;;;;;4182605;28;20087;-85
2023/03/20 10:06:38;;;;;;;11.50;4.80;;;10.40;99.90;;;;;;4184260;28;20449;-85
2023/03/20 10:08:41;;;;;;;15.25;5.63;;;10.40;99.90;;;;;;4183740;28;20049;-86
2023/03/20 10:10:57;;;;;;;13.30;5.10;;;10.40;99.90;;;;;;4172221;28;20057;-85
2023/03/20 10:13:30;;;;;;;12.52;5.65;;;10.40;99.90;;;;;;4183001;28;20049;-86
2023/03/20 10:15:54;;;;;;;13.63;4.80;;;10.50;99.90;;;;;;4144838;28;20048;-86
2023/03/20 10:17:58;;;;;;;16.63;5.68;;;10.50;99.90;;;;;;4200366;28;20051;-84
2023/03/20 10:20:12;;;;;;;13.05;4.60;;;10.50;99.90;;;;;;4182562;28;20080;-85
2023/03/20 10:22:56;;;;;;;11.68;5.43;;;10.50;99.90;;;;;;4199748;28;20127;-85
2023/03/20 10:25:07;;;;;;;13.20;6.85;;;10.60;99.90;;;;;;4206921;28;20512;-85
2023/03/20 10:27:39;;;;;;;14.20;6.00;;;10.60;99.90;;;;;;4199862;28;20048;-85
2023/03/20 10:29:59;;;;;;;15.88;6.00;;;10.70;99.90;;;;;;4185034;28;20053;-85
2023/03/20 10:32:14;;;;;;;21.35;5.25;;;10.70;99.90;;;;;;4200910;28;20047;-85
2023/03/20 10:34:47;;;;;;;13.68;5.10;;;10.70;99.90;;;;;;4182951;28;20103;-85
2023/03/20 10:37:12;;;;;;;15.13;5.38;;;10.60;99.90;;;;;;4210573;28;20500;-85
2023/03/20 10:39:37;;;;;;;13.60;5.95;;;10.60;99.90;;;;;;4199242;28;20055;-85
2023/03/20 10:41:46;;;;;;;13.25;6.10;;;10.70;99.90;;;;;;4201842;28;20089;-86
2023/03/20 10:43:51;;;;;;;13.38;5.75;;;10.70;99.90;;;;;;4206983;28;20044;-86
2023/03/20 10:45:58;;;;;;;11.57;5.68;;;10.60;99.90;;;;;;4206054;28;20043;-85
2023/03/20 10:48:03;;;;;;;12.95;5.80;;;10.70;99.90;;;;;;4207392;28;20044;-86
2023/03/20 10:50:10;;;;;;;13.15;5.65;;;10.70;99.90;;;;;;4210475;28;20071;-85
2023/03/20 10:52:17;;;;;;;11.23;5.35;;;10.80;99.90;;;;;;4198994;28;20048;-85